Terminal Aerodrome Forecast
Issued by NWS Twin Cities, MN

Home | Current Version | Previous Version | Text Only | Print | Product List | Glossary On
Versions: 1 2 3 4 5 6 7 8 9 10 11 12 13 14 15 16 17 18 19
000
FTUS43 KMPX 162320
TAFEAU
TAF
KEAU 162320Z 1700/1724 19006KT P6SM SKC
     FM170400 19006KT P6SM SKC WS020/24045KT
     FM170800 VRB03KT P6SM FEW250
     FM171700 21008KT P6SM SKC=

USA.gov is the U.S. government's official web portal to all federal, state and local government web resources and services.